Soaring Guidance
Issued by NWS Reno, NV

Home | Current Version | Previous Version | Text Only | Print | Product List | Glossary On
Versions: 1 2 3 4 5 6
000
UXUS97 KREV 071446
SRGREV

SOARING FORECAST
NATIONAL WEATHER SERVICE - RENO NV
700 AM PST WED DEC 7 2016

THIS SOARING FORECAST IS FOR THE EASTERN SIERRA AND WESTERN NEVADA
WITH SPECIFIC INDICES FOR THE GREATER RENO AREA.

THIS FORECAST IS PREPARED DAILY BY 700 AM AND IS NOT UPDATED.

FOR CURRENT FLIGHT CONDITIONS...FORECASTS...AND ADVISORIES...ACCESS
YOUR LOCAL BRIEFING OUTLET OR FLIGHT SERVICE STATION.

*******************************************************************
FORECASTED LOCAL INDICES FOR RENO:        TODAY     YESTERDAY
FORECASTED MAX TEMP AT RENO (DEG F).....     36          45
FORECASTED TRIGGER TEMPERATURE (DEG F)..     29          49
   EXCEEDED YESTERDAY BY
FORECASTED MAXIMUM ALTITUDE (FT MSL)....   9400        8700
FORECASTED SOARING INDEX (FPM)..........    282         291
FORECASTED K-INDEX.........VALID 18Z....    -25         -12
FORECASTED K-INDEX.........VALID 00Z....      5          -3
FORECASTED LIFTED INDEX....VALID 18Z....     10           6
FORECASTED LIFTED INDEX....VALID 00Z....      6           5

AFTERNOON WINDS ALOFT FORECAST
MSL (FT) WIND/TEMP
9000  2411/-05
10000 2412/-06
12000 2615/-10
14000 2722/-12
16000 2831/-15
18000 2956/-18
24000 2955/-31
30000 2852/-48
34000 2969/-54
39000 2972/-54

SLIDE MOUNTAIN DATA:
     DATE       TIME     TEMP  DEWPT   RH         WIND (MPH)
                        (F)   (F)           | DIR  SPEED GUST
2016-12-07    04:50      12     4     58    | 258    8   10
2016-12-07    04:30      12     5     64    | 256    8   10
2016-12-07    04:20      11     9     86    | 255    7    9
2016-12-07    04:00      11     9     88    | 247    7    9

RENO TAF FORECAST:
KRNO 071146Z 0712/0812 VRB04KT P6SM SCT060 SCT200
     FM071800 11004KT P6SM OVC150
     FM080200 12007KT 5SM -SN BKN040 OVC080
     FM080800 15008KT 3SM -SN OVC025
      TEMPO 0810/0812 6SM -FZRA OVC025

CARSON CITY TAF FORECAST:
KCXP 071146Z 0712/0812 VRB04KT P6SM SCT045 SCT200
     FM071800 07008G18KT P6SM OVC150
     FM080200 08008KT 5SM -SN BKN040 OVC080
     FM081000 09007KT 3SM -SN OVC025
      TEMPO 0810/0812 6SM -FZRA OVC025

OUTLOOK FOR THE RENO-CARSON CITY-MINDEN AREA:
.THURSDAY...SNOW, RAIN AND A CHANCE OF FREEZING RAIN IN THE
MORNING, THEN RAIN AND SNOW LIKELY IN THE AFTERNOON. SNOW LEVEL
RISING TO 6500 FEET. SNOW ACCUMULATION UP TO 1 INCH. HIGHS 40 TO
50. SOUTH WINDS UP TO 10 MPH INCREASING TO SOUTHWEST 15 TO 20 MPH
WITH GUSTS UP TO 35 MPH IN THE AFTERNOON.

SUNRISE AND SUNSET
DECEMBER  7 2016......SUNRISE   706 AM PST   SUNSET   435 PM PST
DECEMBER  8 2016......SUNRISE   707 AM PST   SUNSET   435 PM PST



USA.gov is the U.S. government's official web portal to all federal, state and local government web resources and services.